KWWR/WWR METAR and TAF weather

Enter ICAO airport designator
Station Type Date Time Source
KWWR METAR 2018/12/12 07:35 UTC NOAA

KWWR 120735Z AUTO 23008KT 10SM CLR M01/M08 A3002 RMK AO2


Station Type Date Time Source
KWWR Decoded METAR 2018/12/12 07:35 UTC NOAA

Woodward, West Woodward Airport, OK, United States (KWWR) 36-26-12N 099-31-16W 667M
Dec 12, 2018 - 02:35 AM EST / 2018.12.12 0735 UTC
Wind: from the SW (230 degrees) at 9 MPH (8 KT):0
Visibility: 10 mile(s):0
Sky conditions: clear
Temperature: 30 F (-1 C)
Windchill: 21 F (-6 C):1
Dew Point: 17 F (-8 C)
Relative Humidity: 58%
Pressure (altimeter): 30.02 in. Hg (1016 hPa)
ob: KWWR 120735Z AUTO 23008KT 10SM CLR M01/M08 A3002 RMK AO2
cycle: 7

Station Type Date Time Source
KWWR TAF 2018/12/12 06:22 UTC NOAA

TAF KWWR 120520Z 1206/1306 35008KT P6SM SCT150 BKN250
FM121500 15004KT P6SM SCT250


Example: see airport list